createdAt,value
2019-03-26T00:00:45.974Z,100.00
2019-03-26T00:04:05.365Z,100.00
2019-03-26T00:07:04.852Z,100.00
2019-03-26T00:10:13.050Z,100.00
2019-03-26T00:13:21.894Z,100.00
2019-03-26T00:16:29.893Z,100.00
2019-03-26T00:19:38.525Z,100.00
2019-03-26T00:22:46.632Z,100.00
2019-03-26T00:25:54.822Z,100.00
2019-03-26T00:29:03.018Z,100.00
2019-03-26T00:32:11.021Z,100.00
2019-03-26T00:35:19.321Z,100.00
2019-03-26T00:38:27.502Z,100.00
2019-03-26T00:41:35.846Z,100.00
2019-03-26T00:44:44.036Z,100.00
2019-03-26T00:47:52.523Z,100.00
2019-03-26T00:51:00.963Z,100.00
2019-03-26T00:54:09.392Z,100.00
2019-03-26T00:57:17.526Z,100.00
2019-03-26T01:00:54.040Z,100.00
2019-03-26T01:04:02.238Z,100.00
2019-03-26T01:07:10.802Z,100.00
2019-03-26T01:10:27.547Z,100.00
2019-03-26T01:13:35.768Z,100.00
2019-03-26T01:16:44.023Z,100.00
2019-03-26T01:19:52.521Z,100.00
2019-03-26T01:23:00.929Z,100.00
2019-03-26T01:29:24.134Z,100.00
2019-03-26T01:32:32.278Z,100.00
2019-03-26T01:35:42.043Z,100.00
2019-03-26T01:38:50.669Z,100.00
2019-03-26T01:41:59.366Z,100.00
2019-03-26T01:45:07.938Z,100.00
2019-03-26T01:48:16.954Z,100.00
2019-03-26T01:51:25.526Z,100.00
2019-03-26T01:54:33.509Z,100.00
2019-03-26T01:57:41.770Z,100.00
2019-03-26T02:00:49.968Z,100.00
2019-03-26T02:03:58.288Z,100.00
2019-03-26T02:07:06.483Z,100.00
2019-03-26T02:10:14.870Z,100.00
2019-03-26T02:13:22.967Z,100.00
2019-03-26T02:16:31.157Z,100.00
2019-03-26T02:19:39.895Z,100.00
2019-03-26T02:22:48.361Z,100.00
2019-03-26T02:25:57.133Z,100.00
2019-03-26T02:29:05.729Z,100.00
2019-03-26T02:32:14.378Z,100.00
2019-03-26T02:35:22.807Z,100.00
2019-03-26T02:38:31.270Z,100.00
2019-03-26T02:41:39.376Z,100.00
2019-03-26T02:44:47.863Z,100.00
2019-03-26T02:47:56.168Z,100.00
2019-03-26T02:51:04.366Z,100.00
2019-03-26T02:54:12.949Z,100.00
2019-03-26T02:57:21.070Z,100.00
2019-03-26T03:00:29.363Z,100.00
2019-03-26T03:03:37.809Z,100.00
2019-03-26T03:06:46.319Z,100.00
2019-03-26T03:09:54.497Z,100.00
2019-03-26T03:13:02.805Z,100.00
2019-03-26T03:16:11.513Z,100.00
2019-03-26T03:19:19.719Z,100.00
2019-03-26T03:22:28.141Z,100.00
2019-03-26T03:25:37.252Z,100.00
2019-03-26T03:28:45.460Z,100.00
2019-03-26T03:31:53.666Z,100.00
2019-03-26T03:35:02.006Z,100.00
2019-03-26T03:38:10.843Z,100.00
2019-03-26T03:41:19.761Z,100.00
2019-03-26T03:44:27.940Z,100.00
2019-03-26T03:47:37.408Z,100.00
2019-03-26T03:50:46.251Z,100.00
2019-03-26T03:53:55.651Z,100.00
2019-03-26T03:57:06.018Z,100.00
2019-03-26T04:00:40.185Z,100.00
2019-03-26T04:03:48.732Z,100.00
2019-03-26T04:06:56.920Z,100.00
2019-03-26T04:10:05.773Z,100.00
2019-03-26T04:13:13.965Z,100.00
2019-03-26T04:16:22.469Z,100.00
2019-03-26T04:19:31.201Z,100.00
2019-03-26T04:22:39.309Z,100.00
2019-03-26T04:25:47.432Z,100.00
2019-03-26T04:28:55.750Z,100.00
2019-03-26T04:32:03.975Z,100.00
2019-03-26T04:35:12.286Z,100.00
2019-03-26T04:38:20.771Z,100.00
2019-03-26T04:41:29.606Z,100.00
2019-03-26T04:44:38.337Z,100.00
2019-03-26T04:47:46.779Z,100.00
2019-03-26T04:50:55.275Z,100.00
2019-03-26T04:54:03.895Z,100.00
2019-03-26T04:57:12.514Z,100.00
2019-03-26T05:00:21.277Z,100.00
2019-03-26T05:03:30.402Z,100.00
2019-03-26T05:06:39.069Z,100.00
2019-03-26T05:09:47.924Z,100.00
2019-03-26T05:12:56.423Z,100.00
2019-03-26T05:16:04.962Z,100.00
2019-03-26T05:19:13.460Z,100.00
2019-03-26T05:22:24.418Z,100.00
2019-03-26T05:25:32.180Z,100.00
2019-03-26T05:28:40.420Z,100.00
2019-03-26T05:31:48.914Z,100.00
2019-03-26T05:34:57.165Z,100.00
2019-03-26T05:38:05.457Z,100.00
2019-03-26T05:41:13.783Z,100.00
2019-03-26T05:44:22.373Z,100.00
2019-03-26T05:47:30.473Z,100.00
2019-03-26T05:50:39.116Z,100.00
2019-03-26T05:53:47.415Z,100.00
2019-03-26T05:56:55.930Z,100.00
2019-03-26T06:00:06.514Z,100.00
2019-03-26T06:03:14.719Z,100.00
2019-03-26T06:06:23.270Z,100.00
2019-03-26T06:09:31.989Z,100.00
2019-03-26T06:12:40.185Z,100.00
2019-03-26T06:15:48.966Z,100.00
2019-03-26T06:18:57.197Z,100.00
2019-03-26T06:22:05.510Z,100.00
2019-03-26T06:25:13.847Z,99.71
2019-03-26T06:28:22.040Z,100.00
2019-03-26T06:31:30.268Z,100.00
2019-03-26T06:34:38.542Z,100.00
2019-03-26T06:37:47.001Z,100.00
2019-03-26T06:40:55.729Z,100.00
2019-03-26T06:44:04.135Z,100.00
2019-03-26T06:47:12.330Z,100.00
2019-03-26T06:50:20.682Z,100.00
2019-03-26T06:53:28.790Z,100.00
2019-03-26T06:56:37.023Z,100.00
2019-03-26T06:59:45.325Z,100.00
2019-03-26T07:02:53.706Z,99.87
2019-03-26T07:06:02.059Z,99.38
2019-03-26T07:09:10.470Z,99.20
2019-03-26T07:12:19.176Z,98.90
2019-03-26T07:15:27.574Z,97.35
2019-03-26T07:18:37.161Z,96.52
2019-03-26T07:21:49.862Z,95.16
2019-03-26T07:24:56.455Z,92.94
2019-03-26T07:28:05.100Z,91.06
2019-03-26T07:31:13.330Z,90.99
2019-03-26T07:34:21.952Z,91.78
2019-03-26T07:37:44.203Z,91.47
2019-03-26T07:40:40.593Z,88.02
2019-03-26T07:43:49.144Z,88.91
2019-03-26T07:46:57.531Z,92.65
2019-03-26T07:50:06.880Z,90.66
2019-03-26T07:53:15.684Z,90.59
2019-03-26T07:56:24.688Z,90.67
2019-03-26T07:59:32.887Z,88.92
2019-03-26T08:02:41.136Z,85.87
2019-03-26T08:05:49.559Z,82.91
2019-03-26T08:08:58.089Z,79.37
2019-03-26T08:12:06.682Z,79.89
2019-03-26T08:15:15.088Z,78.40
2019-03-26T08:18:24.317Z,79.06
2019-03-26T08:21:33.320Z,80.84
2019-03-26T08:24:43.023Z,79.68
2019-03-26T08:27:51.232Z,78.14
2019-03-26T08:30:59.442Z,78.99
2019-03-26T08:34:07.808Z,81.93
2019-03-26T08:37:16.890Z,84.60
2019-03-26T08:40:25.201Z,87.77
2019-03-26T08:43:34.123Z,85.01
2019-03-26T08:46:46.118Z,83.11
2019-03-26T08:49:53.101Z,82.54
2019-03-26T08:53:01.995Z,80.31
2019-03-26T08:56:10.540Z,77.28
2019-03-26T08:59:19.030Z,77.09
2019-03-26T09:02:27.866Z,76.00
2019-03-26T09:05:36.129Z,73.66
2019-03-26T09:08:44.943Z,73.39
2019-03-26T09:11:53.635Z,75.82
2019-03-26T09:15:02.350Z,72.69
2019-03-26T09:18:10.983Z,73.96
2019-03-26T09:21:19.507Z,79.70
2019-03-26T09:24:28.026Z,76.52
2019-03-26T09:27:37.061Z,75.48
2019-03-26T09:30:45.878Z,75.80
2019-03-26T09:33:54.505Z,74.72
2019-03-26T09:37:03.180Z,74.21
2019-03-26T09:40:12.329Z,74.16
2019-03-26T09:43:20.574Z,74.48
2019-03-26T09:46:30.017Z,69.97
2019-03-26T09:49:38.358Z,70.49
2019-03-26T09:52:46.804Z,68.99
2019-03-26T09:56:03.910Z,67.53
2019-03-26T09:59:12.825Z,63.57
2019-03-26T10:02:21.184Z,61.71
2019-03-26T10:05:29.744Z,60.15
2019-03-26T10:08:51.510Z,59.85
2019-03-26T10:11:48.520Z,59.44
2019-03-26T10:14:56.729Z,60.99
2019-03-26T10:18:05.741Z,61.67
2019-03-26T10:21:14.190Z,63.60
2019-03-26T10:24:22.509Z,61.36
2019-03-26T10:27:31.447Z,60.85
2019-03-26T10:30:40.082Z,65.22
2019-03-26T10:33:48.763Z,63.45
2019-03-26T10:36:57.472Z,63.25
2019-03-26T10:40:07.351Z,63.32
2019-03-26T10:43:15.812Z,65.92
2019-03-26T10:46:25.036Z,62.11
2019-03-26T10:49:33.560Z,61.09
2019-03-26T10:52:41.853Z,58.99
2019-03-26T10:55:50.511Z,59.88
2019-03-26T10:58:59.513Z,59.17
2019-03-26T11:02:07.947Z,56.20
2019-03-26T11:05:16.388Z,55.80
2019-03-26T11:08:25.065Z,55.72
2019-03-26T11:11:33.584Z,57.17
2019-03-26T11:14:42.129Z,57.81
2019-03-26T11:17:50.427Z,58.14
2019-03-26T11:21:03.332Z,59.23
2019-03-26T11:24:09.403Z,58.64
2019-03-26T11:27:18.262Z,57.66
2019-03-26T11:30:26.470Z,57.09
2019-03-26T11:33:34.982Z,54.60
2019-03-26T11:36:43.233Z,53.10
2019-03-26T11:39:51.897Z,54.84
2019-03-26T11:43:00.150Z,55.04
2019-03-26T11:46:09.259Z,54.99
2019-03-26T11:49:17.949Z,56.50
2019-03-26T11:52:26.236Z,56.03
2019-03-26T11:55:34.585Z,54.69
2019-03-26T11:58:43.239Z,54.27
2019-03-26T12:01:52.584Z,56.00
2019-03-26T12:05:00.984Z,52.20
2019-03-26T12:08:09.510Z,53.71
2019-03-26T12:11:18.160Z,54.88
2019-03-26T12:14:26.462Z,53.89
2019-03-26T12:17:34.679Z,53.66
2019-03-26T12:20:43.013Z,54.56
2019-03-26T12:23:51.587Z,51.25
2019-03-26T12:27:00.417Z,53.77
2019-03-26T12:30:09.338Z,54.02
2019-03-26T12:33:17.884Z,55.38
2019-03-26T12:36:39.169Z,53.17
2019-03-26T12:39:36.405Z,52.93
2019-03-26T12:42:44.674Z,51.77
2019-03-26T12:45:53.606Z,56.01
2019-03-26T12:49:02.224Z,57.30
2019-03-26T12:52:10.518Z,56.75
2019-03-26T12:55:19.076Z,56.51
2019-03-26T12:58:32.028Z,55.01
2019-03-26T13:01:37.814Z,55.27
2019-03-26T13:04:46.019Z,55.28
2019-03-26T13:07:54.369Z,53.63
2019-03-26T13:11:03.165Z,56.15
2019-03-26T13:14:11.802Z,56.26
2019-03-26T13:17:20.224Z,57.51
2019-03-26T13:20:28.543Z,53.41
2019-03-26T13:23:36.779Z,55.60
2019-03-26T13:29:59.622Z,54.16
2019-03-26T13:33:08.781Z,52.52
2019-03-26T13:36:17.099Z,51.42
2019-03-26T13:39:25.946Z,51.31
2019-03-26T13:42:34.296Z,52.93
2019-03-26T13:45:42.751Z,54.01
2019-03-26T13:48:51.331Z,54.75
2019-03-26T13:51:59.983Z,54.85
2019-03-26T13:55:08.908Z,55.79
2019-03-26T13:58:17.424Z,54.63
2019-03-26T14:01:27.559Z,55.78
2019-03-26T14:04:36.300Z,57.09
2019-03-26T14:07:44.542Z,58.52
2019-03-26T14:10:53.341Z,57.35
2019-03-26T14:14:02.497Z,55.13
2019-03-26T14:17:10.982Z,56.54
2019-03-26T14:20:19.953Z,55.70
2019-03-26T14:23:29.078Z,55.96
2019-03-26T14:26:37.695Z,56.27
2019-03-26T14:29:45.937Z,56.34
2019-03-26T14:32:54.155Z,55.81
2019-03-26T14:36:02.661Z,57.29
2019-03-26T14:39:11.172Z,57.41
2019-03-26T14:42:19.630Z,58.16
2019-03-26T14:45:28.185Z,56.53
2019-03-26T14:48:36.836Z,54.92
2019-03-26T14:51:45.653Z,55.77
2019-03-26T14:54:53.885Z,54.92
2019-03-26T14:58:02.082Z,52.51
2019-03-26T15:01:10.827Z,55.14
2019-03-26T15:04:19.620Z,52.65
2019-03-26T15:07:27.995Z,52.19
2019-03-26T15:10:36.596Z,52.43
2019-03-26T15:13:45.258Z,51.36
2019-03-26T15:16:54.139Z,53.79
2019-03-26T15:20:02.935Z,52.08
2019-03-26T15:23:11.356Z,52.34
2019-03-26T15:26:20.075Z,52.18
2019-03-26T15:29:28.840Z,51.37
2019-03-26T15:32:37.264Z,49.87
2019-03-26T15:35:46.369Z,51.68
2019-03-26T15:38:55.188Z,53.14
2019-03-26T15:42:04.639Z,53.99
2019-03-26T15:45:15.034Z,53.44
2019-03-26T15:48:23.237Z,54.76
2019-03-26T15:51:32.467Z,55.22
2019-03-26T15:54:41.029Z,56.00
2019-03-26T15:57:49.210Z,55.30
2019-03-26T16:00:57.907Z,54.43
2019-03-26T16:04:06.458Z,55.21
2019-03-26T16:07:15.164Z,54.90
2019-03-26T16:10:23.863Z,54.90
2019-03-26T16:13:35.596Z,55.61
2019-03-26T16:16:42.818Z,56.18
2019-03-26T16:19:51.826Z,55.99
2019-03-26T16:23:00.691Z,55.75
2019-03-26T16:26:09.550Z,58.19
2019-03-26T16:29:18.334Z,57.15
2019-03-26T16:32:26.640Z,58.78
2019-03-26T16:35:35.148Z,57.91
2019-03-26T16:38:43.933Z,57.60
2019-03-26T16:41:52.399Z,58.20
2019-03-26T16:45:00.797Z,57.75
2019-03-26T16:48:10.359Z,58.06
2019-03-26T16:51:18.682Z,59.27
2019-03-26T16:54:27.141Z,58.78
2019-03-26T16:57:36.320Z,58.73
2019-03-26T17:00:44.736Z,59.56
2019-03-26T17:03:53.138Z,59.58
2019-03-26T17:07:02.012Z,60.09
2019-03-26T17:10:10.796Z,59.96
2019-03-26T17:13:19.856Z,61.52
2019-03-26T17:16:29.047Z,60.65
2019-03-26T17:19:38.355Z,60.86
2019-03-26T17:22:47.426Z,60.37
2019-03-26T17:25:56.553Z,60.58
2019-03-26T17:29:05.130Z,60.67
2019-03-26T17:32:13.476Z,61.39
2019-03-26T17:35:22.140Z,61.91
2019-03-26T17:38:31.456Z,62.71
2019-03-26T17:41:40.488Z,62.61
2019-03-26T17:44:49.433Z,64.26
2019-03-26T17:47:57.766Z,63.44
2019-03-26T17:51:06.390Z,65.37
2019-03-26T17:54:15.026Z,64.54
2019-03-26T17:57:23.801Z,65.04
2019-03-26T18:00:46.203Z,65.07
2019-03-26T18:03:56.454Z,66.54
2019-03-26T18:07:07.194Z,65.19
2019-03-26T18:10:19.231Z,65.36
2019-03-26T18:13:29.903Z,66.28
2019-03-26T18:16:41.402Z,66.87
2019-03-26T18:19:51.894Z,66.59
2019-03-26T18:23:00.968Z,67.77
2019-03-26T18:26:12.932Z,67.43
2019-03-26T18:29:21.105Z,67.82
2019-03-26T18:32:30.613Z,68.37
2019-03-26T18:35:42.841Z,69.26
2019-03-26T18:38:54.435Z,69.43
2019-03-26T18:42:04.037Z,68.12
2019-03-26T18:45:15.377Z,68.19
2019-03-26T18:48:25.304Z,68.52
2019-03-26T18:51:34.916Z,69.33
2019-03-26T18:54:45.227Z,70.18
2019-03-26T18:57:55.723Z,70.79
2019-03-26T19:01:05.869Z,69.66
2019-03-26T19:04:36.470Z,70.32
2019-03-26T19:07:46.622Z,70.63
2019-03-26T19:10:57.332Z,70.37
2019-03-26T19:14:08.937Z,71.63
2019-03-26T19:17:21.391Z,72.26
2019-03-26T19:20:31.124Z,71.24
2019-03-26T19:23:42.133Z,70.82
2019-03-26T19:26:53.324Z,71.51
2019-03-26T19:30:04.424Z,72.79
2019-03-26T19:33:13.965Z,73.50
2019-03-26T19:36:22.479Z,74.22
2019-03-26T19:39:31.892Z,73.92
2019-03-26T19:42:42.758Z,73.71
2019-03-26T19:45:52.628Z,73.56
2019-03-26T19:49:02.094Z,73.46
2019-03-26T19:52:11.030Z,74.05
2019-03-26T19:55:20.871Z,73.67
2019-03-26T19:58:29.464Z,74.09
2019-03-26T20:01:38.460Z,74.85
2019-03-26T20:04:47.617Z,74.70
2019-03-26T20:07:56.486Z,73.89
2019-03-26T20:11:05.732Z,73.92
2019-03-26T20:14:15.769Z,73.95
2019-03-26T20:17:24.719Z,73.39
2019-03-26T20:20:33.903Z,74.45
2019-03-26T20:23:43.834Z,75.29
2019-03-26T20:26:53.920Z,75.03
2019-03-26T20:30:03.862Z,74.42
2019-03-26T20:33:14.720Z,75.00
2019-03-26T20:36:23.975Z,75.18
2019-03-26T20:39:33.932Z,75.22
2019-03-26T20:42:42.986Z,74.78
2019-03-26T20:45:51.573Z,74.12
2019-03-26T20:49:02.347Z,73.60
2019-03-26T20:52:11.402Z,73.49
2019-03-26T20:55:31.271Z,73.19
2019-03-26T20:58:40.383Z,73.96
2019-03-26T21:01:49.275Z,74.73
2019-03-26T21:04:58.927Z,74.41
2019-03-26T21:08:07.645Z,74.91
2019-03-26T21:11:16.482Z,74.91
2019-03-26T21:14:25.194Z,75.01
2019-03-26T21:17:33.772Z,73.58
2019-03-26T21:20:42.848Z,74.07
2019-03-26T21:23:51.621Z,75.02
2019-03-26T21:27:00.239Z,76.43
2019-03-26T21:30:15.587Z,76.74
2019-03-26T21:33:22.165Z,77.53
2019-03-26T21:36:31.462Z,76.93
2019-03-26T21:39:40.026Z,76.25
2019-03-26T21:42:48.530Z,75.65
2019-03-26T21:45:56.787Z,75.11
2019-03-26T21:49:05.440Z,75.46
2019-03-26T21:52:14.221Z,74.79
2019-03-26T21:55:22.734Z,73.84
2019-03-26T21:58:31.349Z,74.47
2019-03-26T22:01:39.872Z,74.59
2019-03-26T22:04:48.702Z,74.62
2019-03-26T22:07:57.498Z,74.74
2019-03-26T22:11:05.948Z,74.47
2019-03-26T22:14:18.304Z,75.05
2019-03-26T22:17:25.132Z,75.49
2019-03-26T22:20:34.228Z,76.51
2019-03-26T22:23:42.914Z,74.97
2019-03-26T22:26:51.214Z,74.77
2019-03-26T22:30:00.337Z,75.87
2019-03-26T22:33:09.254Z,76.59
2019-03-26T22:36:17.777Z,77.06
2019-03-26T22:39:26.241Z,75.22
2019-03-26T22:42:34.957Z,75.33
2019-03-26T22:45:43.852Z,75.82
2019-03-26T22:48:52.463Z,75.68
2019-03-26T22:52:01.303Z,76.22
2019-03-26T22:55:10.561Z,76.32
2019-03-26T22:58:19.471Z,77.21
2019-03-26T23:01:27.889Z,77.48
2019-03-26T23:04:36.505Z,77.50
2019-03-26T23:07:45.158Z,77.93
2019-03-26T23:10:53.375Z,77.51
2019-03-26T23:14:01.704Z,77.33
2019-03-26T23:17:10.717Z,77.99
2019-03-26T23:20:19.656Z,77.58
2019-03-26T23:23:29.027Z,78.46
2019-03-26T23:26:37.766Z,78.25
2019-03-26T23:29:46.329Z,78.80
2019-03-26T23:32:54.636Z,78.49
2019-03-26T23:36:03.465Z,78.87
2019-03-26T23:39:11.659Z,78.94
2019-03-26T23:42:19.977Z,79.88
2019-03-26T23:45:28.607Z,79.89
2019-03-26T23:48:37.073Z,80.59
2019-03-26T23:51:45.171Z,80.21
2019-03-26T23:54:53.298Z,81.45
2019-03-26T23:58:01.610Z,81.37
